Time;durP1;ratioP1;P1;durP2;ratioP2;P2;SDS_P1;SDS_P2;PMS_P1;PMS_P2;Temp;Humidity;BMP_temperature;BMP_pressure;BME280_temperature;BME280_humidity;BME280_pressure;Samples;Min_cycle;Max_cycle;Signal;HPM_P1;HPM_P2
2023/01/17 00:01:08;;;;;;;5.35;4.22;;;4.90;99.90;;;;;;5059488;28;20256;-51
2023/01/17 00:09:51;;;;;;;6.60;4.05;;;4.90;99.90;;;;;;5052052;28;20070;-52
2023/01/17 00:11:51;;;;;;;4.28;3.78;;;4.80;99.90;;;;;;5045100;28;20079;-50
2023/01/17 00:14:17;;;;;;;4.57;3.70;;;4.80;99.90;;;;;;5053069;28;20048;-52
2023/01/17 00:16:43;;;;;;;6.50;3.90;;;4.90;99.90;;;;;;5049176;28;20047;-55
2023/01/17 01:33:49;;;;;;;6.47;4.80;;;4.40;99.90;;;;;;5046374;28;20074;-51
2023/01/17 01:36:15;;;;;;;6.53;4.60;;;4.40;99.90;;;;;;5056836;28;20044;-54
2023/01/17 01:38:41;;;;;;;5.72;3.55;;;4.30;99.90;;;;;;5060424;28;20032;-52
2023/01/17 01:41:07;;;;;;;8.70;3.88;;;4.30;99.90;;;;;;5054203;28;20037;-52
2023/01/17 01:43:47;;;;;;;8.75;3.60;;;4.30;99.90;;;;;;5058209;28;20104;-52
2023/01/17 01:46:15;;;;;;;3.15;2.85;;;4.30;99.90;;;;;;5053699;28;20597;-52
2023/01/17 01:48:57;;;;;;;6.25;3.05;;;4.30;99.90;;;;;;5055759;28;20040;-49
2023/01/17 01:51:28;;;;;;;6.25;2.80;;;4.30;99.90;;;;;;5055938;28;20028;-51
2023/01/17 01:54:00;;;;;;;3.88;2.58;;;4.50;99.90;;;;;;5063391;28;20504;-53
2023/01/17 01:56:27;;;;;;;3.30;2.15;;;4.50;99.90;;;;;;5051502;28;20616;-52
2023/01/17 01:58:54;;;;;;;3.65;2.63;;;4.30;99.90;;;;;;5050625;28;20099;-50
2023/01/17 02:01:19;;;;;;;3.33;1.75;;;4.40;99.90;;;;;;5060561;28;20098;-51
2023/01/17 02:03:46;;;;;;;5.35;1.58;;;4.10;99.90;;;;;;5060513;28;20048;-50
2023/01/17 02:06:29;;;;;;;3.40;1.48;;;;;;;;;;5058862;28;20135;-52
2023/01/17 02:08:59;;;;;;;1.45;1.20;;;3.80;99.90;;;;;;5062862;28;20062;-52
2023/01/17 02:11:25;;;;;;;3.40;1.20;;;4.10;99.90;;;;;;5048000;28;20032;-52
2023/01/17 02:13:51;;;;;;;2.30;1.33;;;4.00;99.90;;;;;;5053096;28;20404;-50
2023/01/17 02:16:37;;;;;;;1.85;1.52;;;4.20;99.90;;;;;;5060753;28;20033;-55
2023/01/17 02:19:29;;;;;;;4.30;2.00;;;4.30;99.90;;;;;;5061769;28;20089;-55
2023/01/17 02:21:55;;;;;;;2.10;1.90;;;4.40;99.90;;;;;;5056838;28;20116;-53
2023/01/17 02:24:51;;;;;;;1.70;1.60;;;4.40;99.90;;;;;;5063044;28;20055;-51
2023/01/17 02:27:47;;;;;;;2.75;1.42;;;4.30;99.90;;;;;;5044170;28;20037;-52
2023/01/17 02:30:46;;;;;;;1.90;0.90;;;4.20;99.90;;;;;;5046927;28;20526;-53
2023/01/17 02:33:27;;;;;;;1.85;1.15;;;3.80;99.90;;;;;;5054265;28;20117;-52
2023/01/17 02:35:56;;;;;;;0.80;0.80;;;3.80;99.90;;;;;;5053159;28;20029;-51
2023/01/17 02:38:47;;;;;;;1.23;0.68;;;3.90;99.90;;;;;;5061813;28;20064;-51
2023/01/17 02:41:18;;;;;;;2.47;0.90;;;3.30;99.90;;;;;;5062480;28;20484;-53
2023/01/17 02:43:44;;;;;;;2.95;0.90;;;3.60;99.90;;;;;;5074630;28;20036;-52
2023/01/17 02:46:10;;;;;;;1.02;0.93;;;3.80;99.90;;;;;;5069341;28;20041;-48
2023/01/17 02:48:37;;;;;;;1.58;1.10;;;3.90;99.90;;;;;;5061364;28;20086;-51
2023/01/17 02:51:38;;;;;;;2.67;1.30;;;3.70;99.90;;;;;;5061536;28;20033;-53
2023/01/17 02:54:26;;;;;;;2.92;1.50;;;3.70;99.90;;;;;;5037796;28;20128;-52
2023/01/17 02:57:20;;;;;;;2.15;1.40;;;3.70;99.90;;;;;;5061216;28;20127;-50
2023/01/17 02:59:58;;;;;;;2.05;1.25;;;3.90;99.90;;;;;;5060957;28;20043;-53
2023/01/17 03:02:38;;;;;;;1.55;1.40;;;3.80;99.90;;;;;;5060615;28;20615;-52
2023/01/17 03:05:35;;;;;;;2.17;1.50;;;3.80;99.90;;;;;;5043084;28;20036;-54
2023/01/17 03:08:02;;;;;;;2.47;1.60;;;3.90;99.90;;;;;;5041593;28;20574;-50
2023/01/17 03:10:30;;;;;;;2.53;1.58;;;3.90;99.90;;;;;;5046077;28;20044;-54
2023/01/17 03:12:57;;;;;;;2.55;1.70;;;3.90;99.90;;;;;;5061417;28;20040;-53
2023/01/17 03:15:22;;;;;;;1.70;1.60;;;3.90;99.90;;;;;;5045975;28;22031;-53
2023/01/17 03:17:51;;;;;;;3.38;1.70;;;3.90;99.90;;;;;;5074214;28;20120;-51
2023/01/17 03:20:17;;;;;;;1.95;1.50;;;3.80;99.90;;;;;;5060489;28;20115;-51
2023/01/17 03:22:43;;;;;;;2.08;1.88;;;3.80;99.90;;;;;;5043558;28;20033;-52
2023/01/17 03:25:08;;;;;;;3.55;1.67;;;4.00;99.90;;;;;;5042222;28;20719;-53
2023/01/17 03:27:34;;;;;;;3.38;2.08;;;4.10;99.90;;;;;;5044288;28;20385;-52
2023/01/17 03:30:00;;;;;;;3.90;1.85;;;4.00;99.90;;;;;;5057935;28;20447;-54
2023/01/17 03:32:26;;;;;;;3.70;1.98;;;4.00;99.90;;;;;;5049516;28;20029;-51
2023/01/17 03:34:52;;;;;;;3.25;2.30;;;3.90;99.90;;;;;;5056311;28;20040;-51
2023/01/17 03:37:17;;;;;;;3.40;2.40;;;4.10;99.90;;;;;;5059429;28;20090;-53
2023/01/17 03:39:43;;;;;;;3.85;2.47;;;4.10;99.90;;;;;;5057573;28;20041;-51
2023/01/17 03:42:09;;;;;;;3.15;2.30;;;4.00;99.90;;;;;;5054061;28;20127;-52
2023/01/17 03:44:34;;;;;;;5.30;3.00;;;4.10;99.90;;;;;;5053929;28;20047;-50
2023/01/17 03:47:00;;;;;;;8.05;3.22;;;4.20;99.90;;;;;;5056913;28;20047;-52
2023/01/17 03:49:25;;;;;;;7.22;3.53;;;4.10;99.90;;;;;;5056570;28;20108;-53
2023/01/17 03:51:51;;;;;;;5.05;3.70;;;4.10;99.90;;;;;;5052726;28;20516;-50
2023/01/17 03:54:17;;;;;;;6.00;4.28;;;4.00;99.90;;;;;;5060416;28;20028;-53
2023/01/17 03:56:42;;;;;;;5.60;3.88;;;4.10;99.90;;;;;;5061502;28;20036;-56
2023/01/17 03:59:08;;;;;;;9.30;3.92;;;4.10;99.90;;;;;;5055606;28;20029;-52
2023/01/17 04:01:33;;;;;;;6.78;4.05;;;4.00;99.90;;;;;;5055553;28;20040;-53
2023/01/17 04:03:59;;;;;;;7.22;4.07;;;4.10;99.90;;;;;;5054703;28;20064;-53
2023/01/17 04:06:25;;;;;;;6.03;3.45;;;4.10;99.90;;;;;;5051985;28;20036;-49
2023/01/17 04:08:50;;;;;;;10.52;3.90;;;4.00;99.90;;;;;;5052701;28;20106;-50
2023/01/17 04:11:16;;;;;;;5.95;3.40;;;4.10;99.90;;;;;;5053465;28;20026;-52
2023/01/17 04:13:41;;;;;;;6.03;3.13;;;4.10;99.90;;;;;;5054078;28;20098;-53
2023/01/17 04:16:11;;;;;;;6.70;3.58;;;4.00;99.90;;;;;;5060313;28;20036;-51
2023/01/17 04:18:37;;;;;;;7.45;3.90;;;3.90;99.90;;;;;;5058080;28;20051;-53
2023/01/17 04:21:03;;;;;;;8.45;4.13;;;3.90;99.90;;;;;;5059328;28;20424;-51
2023/01/17 04:23:28;;;;;;;7.55;4.18;;;3.80;99.90;;;;;;5058369;28;20094;-52
2023/01/17 04:25:54;;;;;;;7.25;4.25;;;3.80;99.90;;;;;;5060593;28;20535;-50
2023/01/17 04:28:19;;;;;;;8.15;4.32;;;3.90;99.90;;;;;;5056775;28;20938;-52
2023/01/17 04:30:45;;;;;;;8.10;4.28;;;3.80;99.90;;;;;;5060497;28;20039;-53
2023/01/17 04:33:11;;;;;;;7.75;4.30;;;3.80;99.90;;;;;;5056956;28;20033;-52
2023/01/17 04:35:36;;;;;;;6.18;4.28;;;3.70;99.90;;;;;;5058381;28;20037;-52
2023/01/17 04:38:02;;;;;;;7.93;4.40;;;3.80;99.90;;;;;;5057306;28;20509;-53
2023/01/17 04:40:28;;;;;;;8.38;4.22;;;3.80;99.90;;;;;;5060149;28;20032;-50
2023/01/17 04:42:54;;;;;;;7.95;4.65;;;3.60;99.90;;;;;;5055860;28;20044;-52
2023/01/17 04:45:20;;;;;;;7.53;4.78;;;3.40;99.90;;;;;;5054152;28;20627;-52
2023/01/17 04:47:45;;;;;;;5.85;4.43;;;3.30;99.90;;;;;;5057614;28;20037;-52
2023/01/17 04:50:11;;;;;;;8.40;4.20;;;3.50;99.90;;;;;;5059130;28;20500;-52
2023/01/17 04:52:37;;;;;;;7.38;4.68;;;3.60;99.90;;;;;;5061021;28;20036;-51
2023/01/17 04:55:03;;;;;;;7.75;4.45;;;3.50;99.90;;;;;;5053648;28;20037;-54
2023/01/17 04:57:28;;;;;;;6.65;4.05;;;3.50;99.90;;;;;;5055195;28;20040;-53
2023/01/17 04:59:54;;;;;;;6.40;4.35;;;3.40;99.90;;;;;;5053398;28;20669;-52
2023/01/17 05:02:19;;;;;;;7.75;4.25;;;3.40;99.90;;;;;;5056969;28;20029;-51
2023/01/17 05:04:45;;;;;;;6.18;4.28;;;3.40;99.90;;;;;;5059985;28;20036;-53
2023/01/17 05:07:10;;;;;;;6.75;4.43;;;3.40;99.90;;;;;;5063649;28;20025;-52
2023/01/17 05:09:36;;;;;;;8.45;4.15;;;3.40;99.90;;;;;;5064384;28;20102;-51
2023/01/17 05:12:02;;;;;;;7.30;4.40;;;3.50;99.90;;;;;;5062512;28;20055;-49
2023/01/17 05:14:27;;;;;;;6.32;4.47;;;3.40;99.90;;;;;;5064140;28;20148;-52
2023/01/17 05:16:54;;;;;;;9.38;4.53;;;3.40;99.90;;;;;;5058257;28;20048;-50
2023/01/17 05:19:20;;;;;;;6.93;4.40;;;3.40;99.90;;;;;;5052089;28;20036;-52
2023/01/17 05:21:46;;;;;;;6.97;4.80;;;3.40;99.90;;;;;;5058673;28;20090;-54
2023/01/17 05:24:12;;;;;;;6.43;4.60;;;3.20;99.90;;;;;;5054479;28;20029;-51
2023/01/17 05:26:37;;;;;;;8.40;4.80;;;3.20;99.90;;;;;;5064091;28;20500;-53
2023/01/17 05:29:03;;;;;;;6.93;4.65;;;3.40;99.90;;;;;;5056730;28;20033;-51
2023/01/17 05:31:29;;;;;;;9.07;5.55;;;3.40;99.90;;;;;;5043687;28;20135;-52
2023/01/17 05:33:54;;;;;;;8.98;5.93;;;3.50;99.90;;;;;;5050941;28;20025;-50
2023/01/17 05:36:20;;;;;;;10.00;6.03;;;3.40;99.90;;;;;;5055800;28;20629;-51
2023/01/17 05:38:45;;;;;;;11.52;7.15;;;3.40;99.90;;;;;;5051789;28;20700;-53
2023/01/17 05:41:11;;;;;;;8.63;6.65;;;3.40;99.90;;;;;;5055275;28;20024;-50
2023/01/17 05:43:36;;;;;;;12.18;7.15;;;3.50;99.90;;;;;;5057233;28;20098;-51
2023/01/17 05:46:02;;;;;;;13.50;8.07;;;3.30;99.90;;;;;;5048696;28;20029;-50
2023/01/17 05:48:27;;;;;;;11.48;7.68;;;3.50;99.90;;;;;;5061715;28;20598;-53
2023/01/17 05:50:53;;;;;;;12.18;8.18;;;3.60;99.90;;;;;;5060712;28;20045;-52
2023/01/17 05:53:19;;;;;;;11.95;8.10;;;3.50;99.90;;;;;;5057521;28;20040;-53
2023/01/17 05:55:44;;;;;;;12.73;7.75;;;3.50;99.90;;;;;;5058322;28;20040;-51
2023/01/17 05:58:16;;;;;;;15.18;8.07;;;3.50;99.90;;;;;;5062359;28;20024;-53
2023/01/17 06:00:42;;;;;;;13.85;8.93;;;3.60;99.90;;;;;;5061897;28;20028;-54
2023/01/17 06:03:08;;;;;;;14.93;9.13;;;3.70;99.90;;;;;;5061643;28;20033;-55
2023/01/17 06:05:34;;;;;;;14.55;9.07;;;3.80;99.90;;;;;;5063624;28;20090;-51
2023/01/17 06:08:00;;;;;;;15.20;10.05;;;3.90;99.90;;;;;;5064119;28;20671;-51
2023/01/17 06:10:25;;;;;;;19.42;10.43;;;3.90;99.90;;;;;;5050927;28;20063;-50
2023/01/17 06:13:09;;;;;;;17.75;10.52;;;3.80;99.90;;;;;;5052413;28;20036;-54
2023/01/17 06:15:36;;;;;;;17.75;11.10;;;3.70;99.90;;;;;;5057797;28;20044;-51
2023/01/17 06:18:10;;;;;;;17.15;11.00;;;3.80;99.90;;;;;;5058730;28;20028;-52
2023/01/17 06:20:36;;;;;;;18.88;11.23;;;3.80;99.90;;;;;;5053822;28;20042;-51
2023/01/17 06:23:06;;;;;;;15.38;11.27;;;3.80;99.90;;;;;;5043556;28;20484;-53
2023/01/17 06:25:39;;;;;;;18.63;11.35;;;3.70;99.90;;;;;;5055504;28;20044;-53
2023/01/17 06:28:06;;;;;;;16.58;11.68;;;3.70;99.90;;;;;;5051293;28;20028;-49
2023/01/17 06:30:32;;;;;;;17.85;11.82;;;3.80;99.90;;;;;;5046572;28;20036;-52
2023/01/17 06:32:57;;;;;;;19.52;11.90;;;3.80;99.90;;;;;;5057387;28;20041;-51
2023/01/17 06:35:23;;;;;;;20.80;11.88;;;4.00;99.90;;;;;;5054527;28;20029;-54
2023/01/17 06:37:54;;;;;;;21.15;12.98;;;3.90;99.90;;;;;;5055339;28;20068;-51
2023/01/17 06:40:20;;;;;;;20.45;12.32;;;3.70;99.90;;;;;;5051144;28;20049;-53
2023/01/17 06:42:46;;;;;;;22.60;12.65;;;3.70;99.90;;;;;;5049337;28;20044;-49
2023/01/17 06:45:11;;;;;;;20.08;12.98;;;3.70;99.90;;;;;;5048901;28;20532;-51
2023/01/17 06:47:41;;;;;;;18.65;13.75;;;3.60;99.90;;;;;;5044571;28;20087;-50
2023/01/17 06:50:09;;;;;;;18.08;12.52;;;3.80;99.90;;;;;;5045072;28;20033;-51
2023/01/17 06:52:34;;;;;;;21.23;13.63;;;3.40;99.90;;;;;;5049711;28;20461;-51
2023/01/17 06:55:00;;;;;;;21.83;13.20;;;3.60;99.90;;;;;;5052043;28;20128;-50
2023/01/17 06:57:26;;;;;;;23.25;13.85;;;3.70;99.90;;;;;;5053510;28;20518;-52
2023/01/17 06:59:51;;;;;;;19.73;13.20;;;3.80;99.90;;;;;;5047671;28;20119;-53
2023/01/17 07:02:17;;;;;;;23.42;14.90;;;3.70;99.90;;;;;;5050246;28;20033;-51
2023/01/17 07:04:42;;;;;;;21.42;14.20;;;3.70;99.90;;;;;;5053758;28;20096;-51
2023/01/17 07:07:08;;;;;;;28.48;14.75;;;3.90;99.90;;;;;;5060843;28;20670;-50
2023/01/17 07:09:33;;;;;;;21.27;14.65;;;3.70;99.90;;;;;;5062170;28;20040;-50
2023/01/17 07:12:00;;;;;;;29.08;15.80;;;3.70;99.90;;;;;;5061993;28;20469;-50
2023/01/17 07:14:27;;;;;;;26.10;15.40;;;3.90;99.90;;;;;;5053775;28;20523;-52
2023/01/17 07:16:53;;;;;;;26.67;15.93;;;3.90;99.90;;;;;;5060588;28;20037;-49
2023/01/17 07:19:18;;;;;;;25.38;16.05;;;4.00;99.90;;;;;;5064791;28;20047;-53
2023/01/17 07:21:44;;;;;;;23.48;15.95;;;4.20;99.90;;;;;;5053167;28;20049;-55
2023/01/17 07:24:09;;;;;;;27.42;16.88;;;4.10;99.90;;;;;;5059482;28;20047;-53
2023/01/17 07:26:36;;;;;;;24.00;17.20;;;3.90;99.90;;;;;;5044792;28;20060;-54
2023/01/17 07:29:03;;;;;;;23.67;17.08;;;3.60;99.90;;;;;;5048791;28;20029;-54
2023/01/17 07:31:29;;;;;;;23.95;16.08;;;3.50;99.90;;;;;;5052239;28;20060;-55
2023/01/17 07:33:55;;;;;;;27.27;16.73;;;3.50;99.90;;;;;;5053432;28;20573;-55
2023/01/17 07:36:21;;;;;;;24.52;16.85;;;3.30;99.90;;;;;;5059508;28;20048;-55
2023/01/17 07:38:46;;;;;;;23.58;15.27;;;3.30;99.90;;;;;;5053948;28;20116;-52
2023/01/17 07:41:12;;;;;;;25.83;15.73;;;3.60;99.90;;;;;;5049907;28;20063;-54
2023/01/17 07:43:37;;;;;;;21.90;15.38;;;3.60;99.90;;;;;;5047361;28;20608;-56
2023/01/17 07:46:06;;;;;;;26.73;15.25;;;3.70;99.90;;;;;;5053430;28;20044;-55
2023/01/17 07:48:32;;;;;;;26.35;16.02;;;3.70;99.90;;;;;;5040244;28;20161;-53
2023/01/17 07:50:58;;;;;;;25.40;16.02;;;3.90;99.90;;;;;;5058894;28;20491;-54
2023/01/17 07:53:26;;;;;;;30.80;16.33;;;3.70;99.90;;;;;;5050081;28;20040;-56
2023/01/17 07:55:52;;;;;;;25.25;15.35;;;3.80;99.90;;;;;;5048158;28;20029;-55
2023/01/17 07:58:18;;;;;;;25.20;15.23;;;3.70;99.90;;;;;;5053228;28;20149;-55
2023/01/17 08:00:44;;;;;;;24.15;15.35;;;3.50;99.90;;;;;;5052075;28;20033;-56
2023/01/17 08:03:15;;;;;;;27.20;15.27;;;3.50;99.90;;;;;;5049641;28;20420;-56
2023/01/17 08:05:42;;;;;;;22.65;14.50;;;3.60;99.90;;;;;;5051274;28;20037;-54
2023/01/17 08:08:08;;;;;;;26.10;14.30;;;3.70;99.90;;;;;;5050156;28;20139;-56
2023/01/17 08:10:34;;;;;;;29.13;14.82;;;3.20;99.90;;;;;;5046514;28;20041;-54
2023/01/17 08:13:00;;;;;;;24.45;13.88;;;2.80;99.90;;;;;;5052660;28;20076;-56
2023/01/17 08:15:25;;;;;;;20.15;12.95;;;2.50;99.90;;;;;;5057026;28;20032;-54
2023/01/17 08:17:56;;;;;;;20.00;13.13;;;2.50;99.90;;;;;;5055298;28;20036;-56
2023/01/17 08:20:22;;;;;;;22.92;13.30;;;2.60;99.90;;;;;;5057263;28;20376;-56
2023/01/17 08:22:50;;;;;;;27.83;14.40;;;2.70;99.90;;;;;;5052344;28;20087;-55
2023/01/17 08:25:16;;;;;;;23.52;13.57;;;2.90;99.90;;;;;;5051681;28;20040;-54
2023/01/17 08:27:41;;;;;;;23.23;13.50;;;2.70;99.90;;;;;;5052217;28;20067;-55
2023/01/17 08:30:08;;;;;;;23.63;14.02;;;3.00;99.90;;;;;;5053519;28;20036;-54
2023/01/17 08:32:33;;;;;;;21.33;12.25;;;2.90;99.90;;;;;;5059166;28;20094;-55
2023/01/17 08:35:02;;;;;;;21.80;13.05;;;3.00;99.90;;;;;;5054315;28;20033;-54
2023/01/17 08:37:27;;;;;;;28.67;13.93;;;3.10;99.90;;;;;;5055873;28;20090;-55
2023/01/17 08:39:53;;;;;;;21.90;13.93;;;3.30;99.90;;;;;;5051754;28;20033;-54
2023/01/17 08:42:18;;;;;;;20.42;12.95;;;3.10;99.90;;;;;;5050906;28;20585;-54
2023/01/17 08:44:44;;;;;;;22.95;13.77;;;3.00;99.90;;;;;;5057918;28;20637;-54
2023/01/17 08:47:09;;;;;;;19.58;12.82;;;2.80;99.90;;;;;;5049725;28;20078;-55
2023/01/17 08:49:35;;;;;;;23.52;12.82;;;3.00;99.90;;;;;;5041124;28;20037;-54
2023/01/17 08:52:00;;;;;;;22.42;13.85;;;3.00;99.90;;;;;;5056195;28;20024;-54
2023/01/17 08:54:27;;;;;;;21.88;12.85;;;3.10;99.90;;;;;;5051831;28;20040;-54
2023/01/17 08:56:54;;;;;;;21.80;13.65;;;2.90;99.90;;;;;;5056521;28;20059;-55
2023/01/17 08:59:20;;;;;;;26.10;13.48;;;3.00;99.90;;;;;;5056203;28;20062;-54
2023/01/17 09:01:46;;;;;;;24.88;14.13;;;3.30;99.90;;;;;;5046446;28;20551;-54
2023/01/17 09:04:12;;;;;;;25.17;13.25;;;3.50;99.90;;;;;;5046305;28;20082;-54
2023/01/17 09:06:39;;;;;;;22.42;13.10;;;3.60;99.90;;;;;;5045789;28;20112;-55
2023/01/17 09:09:06;;;;;;;32.35;13.60;;;3.60;99.90;;;;;;5046190;28;20033;-56
2023/01/17 09:11:32;;;;;;;27.48;13.35;;;3.40;99.90;;;;;;5054155;28;20040;-54
2023/01/17 09:13:58;;;;;;;21.38;12.25;;;3.50;99.90;;;;;;5058574;28;20592;-54
2023/01/17 09:16:24;;;;;;;22.33;13.02;;;3.60;99.90;;;;;;5055714;28;20040;-55
2023/01/17 09:18:54;;;;;;;21.15;13.10;;;3.60;99.90;;;;;;5049486;28;20036;-55
2023/01/17 09:21:19;;;;;;;21.10;12.63;;;3.80;99.90;;;;;;5054051;28;20482;-54
2023/01/17 09:23:45;;;;;;;22.52;12.25;;;3.80;99.90;;;;;;5051701;28;20040;-54
2023/01/17 09:26:20;;;;;;;23.83;12.23;;;3.70;99.90;;;;;;5047719;28;20029;-55
2023/01/17 09:28:46;;;;;;;21.88;12.70;;;3.70;99.90;;;;;;5058484;28;20051;-55
2023/01/17 09:31:12;;;;;;;26.85;12.75;;;3.60;99.90;;;;;;5048860;28;20032;-56
2023/01/17 09:33:39;;;;;;;25.50;12.15;;;3.70;99.90;;;;;;5055657;28;20131;-55
2023/01/17 09:36:05;;;;;;;25.42;12.85;;;3.50;99.90;;;;;;5043351;28;20037;-56
2023/01/17 09:38:31;;;;;;;25.08;12.93;;;3.60;99.90;;;;;;5048694;28;20051;-54
2023/01/17 09:40:57;;;;;;;22.10;11.70;;;3.80;99.90;;;;;;5045466;28;20522;-54
2023/01/17 09:43:29;;;;;;;25.92;12.73;;;3.90;99.90;;;;;;5051854;28;20040;-53
2023/01/17 09:45:55;;;;;;;23.90;12.73;;;3.90;99.90;;;;;;5055770;28;20032;-54
2023/01/17 09:48:35;;;;;;;23.15;12.25;;;3.70;99.90;;;;;;5059924;28;20029;-55
2023/01/17 09:51:14;;;;;;;24.58;13.18;;;3.90;99.90;;;;;;5053672;28;20154;-55
2023/01/17 09:53:42;;;;;;;21.30;12.05;;;3.70;99.90;;;;;;5057413;28;20482;-56
2023/01/17 09:56:14;;;;;;;22.35;12.25;;;3.90;99.90;;;;;;5060136;28;20048;-56
2023/01/17 09:59:04;;;;;;;26.80;12.50;;;3.90;99.90;;;;;;5054118;28;20546;-54
2023/01/17 10:01:54;;;;;;;22.00;12.00;;;3.90;99.90;;;;;;5057174;28;20028;-54
2023/01/17 10:04:50;;;;;;;19.10;11.95;;;3.90;99.90;;;;;;5052107;28;20101;-55
2023/01/17 10:07:26;;;;;;;20.95;11.70;;;3.90;99.90;;;;;;5048540;28;20043;-54
2023/01/17 10:09:58;;;;;;;24.38;12.38;;;4.10;99.90;;;;;;5047956;28;20099;-55
2023/01/17 10:12:36;;;;;;;23.35;11.23;;;4.00;99.90;;;;;;5056342;28;20029;-55
2023/01/17 10:15:15;;;;;;;22.75;11.52;;;4.10;99.90;;;;;;5059578;28;20056;-53
2023/01/17 10:17:52;;;;;;;19.67;12.90;;;4.10;99.90;;;;;;5053390;28;20076;-53
2023/01/17 10:20:32;;;;;;;30.50;14.00;;;4.00;99.90;;;;;;5053989;28;20635;-54
2023/01/17 10:23:07;;;;;;;20.38;11.00;;;3.90;99.90;;;;;;5059964;28;20545;-54
2023/01/17 10:25:48;;;;;;;22.42;10.68;;;3.90;99.90;;;;;;5049804;28;20037;-55
2023/01/17 10:28:30;;;;;;;23.13;11.02;;;4.00;99.90;;;;;;5050635;28;20051;-55
2023/01/17 10:31:35;;;;;;;13.60;9.23;;;4.10;99.90;;;;;;5055330;28;20115;-53
2023/01/17 10:34:11;;;;;;;21.05;11.30;;;4.30;99.90;;;;;;5036767;28;20291;-55
2023/01/17 10:36:42;;;;;;;19.50;9.93;;;4.20;99.90;;;;;;5055695;28;20045;-56
2023/01/17 10:39:24;;;;;;;18.48;10.40;;;4.10;99.90;;;;;;5059368;28;20040;-55
2023/01/17 10:41:59;;;;;;;18.08;10.27;;;4.10;99.90;;;;;;5059176;28;20043;-56
2023/01/17 10:44:37;;;;;;;14.25;8.73;;;4.10;99.90;;;;;;5057952;28;20038;-52
2023/01/17 10:47:22;;;;;;;19.52;9.60;;;4.20;99.90;;;;;;5057547;28;20610;-54
2023/01/17 10:49:54;;;;;;;17.85;9.35;;;4.20;99.90;;;;;;5060660;28;20029;-56
2023/01/17 10:52:55;;;;;;;18.38;9.18;;;4.10;99.90;;;;;;5056669;28;20036;-56
2023/01/17 10:55:24;;;;;;;18.92;10.35;;;4.00;99.90;;;;;;5051497;28;20039;-54
2023/01/17 10:57:51;;;;;;;18.08;9.77;;;4.00;99.90;;;;;;5058443;28;20033;-53
2023/01/17 11:00:27;;;;;;;20.75;9.55;;;4.30;99.90;;;;;;5052172;28;20036;-56
2023/01/17 11:02:52;;;;;;;19.27;9.27;;;4.30;99.90;;;;;;5046202;28;20126;-55
2023/01/17 11:05:24;;;;;;;14.27;8.18;;;4.30;99.90;;;;;;5046542;28;20550;-54
2023/01/17 11:07:57;;;;;;;17.95;9.00;;;4.20;99.90;;;;;;5052946;28;20155;-54
2023/01/17 11:10:44;;;;;;;14.30;8.20;;;4.30;99.90;;;;;;5053137;28;20101;-54
2023/01/17 11:13:28;;;;;;;15.90;8.73;;;4.20;99.90;;;;;;5059399;28;20040;-51
2023/01/17 11:16:01;;;;;;;18.27;8.73;;;4.30;99.90;;;;;;5056708;28;20029;-56
2023/01/17 11:18:36;;;;;;;21.75;8.85;;;4.50;99.90;;;;;;5050157;28;20323;-55
2023/01/17 11:21:17;;;;;;;18.70;8.68;;;4.50;99.90;;;;;;5056070;28;20037;-55
2023/01/17 11:23:53;;;;;;;17.52;7.75;;;4.50;99.90;;;;;;5061101;28;20486;-56
2023/01/17 11:26:26;;;;;;;15.20;6.38;;;4.30;99.90;;;;;;5050590;28;20040;-54
2023/01/17 11:28:52;;;;;;;12.63;7.13;;;4.20;99.90;;;;;;5057919;28;20036;-53
2023/01/17 11:31:17;;;;;;;14.15;7.15;;;4.20;99.90;;;;;;5057739;28;20119;-53
2023/01/17 11:33:46;;;;;;;12.55;7.45;;;4.30;99.90;;;;;;5058504;28;20131;-56
2023/01/17 11:36:27;;;;;;;15.30;7.80;;;4.50;99.90;;;;;;5054774;28;20120;-55
2023/01/17 11:38:56;;;;;;;16.15;7.28;;;4.60;99.90;;;;;;5056580;28;20550;-54
2023/01/17 11:41:27;;;;;;;15.23;7.05;;;4.70;13.60;;;;;;5052241;28;20068;-55
2023/01/17 11:43:55;;;;;;;12.57;6.43;;;4.80;1.00;;;;;;5056649;28;20041;-53
2023/01/17 11:46:21;;;;;;;18.83;7.25;;;4.90;5.30;;;;;;5057464;28;20290;-52
2023/01/17 11:48:50;;;;;;;15.15;7.90;;;4.90;1.00;;;;;;5057905;28;20036;-55
2023/01/17 11:51:31;;;;;;;15.23;7.72;;;4.80;1.00;;;;;;5043995;28;20051;-53
2023/01/17 11:54:41;;;;;;;14.65;6.28;;;4.80;1.00;;;;;;5057576;28;20729;-52
2023/01/17 11:57:21;;;;;;;13.10;6.93;;;4.70;1.00;;;;;;5036154;28;20051;-54
2023/01/17 11:59:47;;;;;;;14.73;6.32;;;4.60;99.90;;;;;;5038080;28;20041;-53
2023/01/17 12:02:46;;;;;;;13.52;6.43;;;4.60;99.90;;;;;;5047753;28;20033;-55
2023/01/17 12:05:32;;;;;;;13.73;7.32;;;5.00;99.90;;;;;;5062318;28;20619;-56
2023/01/17 12:08:05;;;;;;;17.98;7.10;;;5.00;99.90;;;;;;5051898;28;20036;-54
2023/01/17 12:10:55;;;;;;;19.80;7.55;;;4.90;99.90;;;;;;5055774;28;20535;-54
2023/01/17 12:14:01;;;;;;;13.48;6.32;;;5.10;99.90;;;;;;5050521;28;20143;-55
2023/01/17 12:16:38;;;;;;;15.77;6.53;;;5.00;99.90;;;;;;5053889;28;20101;-55
2023/01/17 12:19:12;;;;;;;15.40;7.00;;;4.90;99.90;;;;;;5057738;28;20044;-56
2023/01/17 12:22:12;;;;;;;12.48;6.15;;;5.00;99.90;;;;;;5060243;28;20040;-55
2023/01/17 12:25:01;;;;;;;13.82;6.88;;;4.90;99.90;;;;;;5055963;28;20032;-56
2023/01/17 12:27:49;;;;;;;12.45;5.63;;;5.10;99.90;;;;;;5049545;28;20068;-54
2023/01/17 12:30:29;;;;;;;13.20;5.72;;;5.00;99.90;;;;;;5055387;28;20654;-55
2023/01/17 12:33:36;;;;;;;11.50;5.82;;;4.90;99.90;;;;;;5052614;28;20560;-56
2023/01/17 12:36:50;;;;;;;11.27;5.75;;;5.00;99.90;;;;;;5052485;28;20039;-55
2023/01/17 12:39:20;;;;;;;11.25;5.40;;;5.10;99.90;;;;;;5000497;28;20796;-55
2023/01/17 12:42:17;;;;;;;12.55;5.40;;;5.20;99.90;;;;;;5041351;28;20029;-55
2023/01/17 12:44:54;;;;;;;14.70;4.97;;;5.20;99.90;;;;;;5047144;28;20060;-55
2023/01/17 12:47:20;;;;;;;15.45;4.80;;;5.30;99.90;;;;;;5053125;28;20364;-54
2023/01/17 12:50:11;;;;;;;14.70;4.95;;;5.30;99.90;;;;;;5054324;28;20032;-53
2023/01/17 12:52:47;;;;;;;13.55;4.70;;;5.20;99.90;;;;;;5054855;28;20597;-54
2023/01/17 12:55:26;;;;;;;9.63;4.85;;;5.10;99.90;;;;;;5059602;28;20055;-55
2023/01/17 12:57:58;;;;;;;19.98;5.63;;;5.20;99.90;;;;;;5049333;28;20430;-56
2023/01/17 13:00:28;;;;;;;11.93;5.15;;;5.30;99.90;;;;;;5045913;28;20373;-54
2023/01/17 13:03:23;;;;;;;12.23;4.72;;;5.40;99.90;;;;;;5054697;28;20033;-55
2023/01/17 13:05:50;;;;;;;8.43;4.20;;;5.00;99.90;;;;;;5050481;28;20044;-54
2023/01/17 13:08:41;;;;;;;19.10;5.97;;;5.10;99.90;;;;;;5050024;28;20064;-54
2023/01/17 13:11:45;;;;;;;13.43;5.10;;;5.10;99.90;;;;;;5044994;28;20044;-53
2023/01/17 13:14:10;;;;;;;8.48;4.60;;;4.90;99.90;;;;;;5047474;28;20031;-55
2023/01/17 13:17:03;;;;;;;16.42;5.68;;;4.80;99.90;;;;;;5056848;28;20602;-55
2023/01/17 13:19:35;;;;;;;16.77;5.77;;;4.80;99.90;;;;;;5047039;28;20531;-55
2023/01/17 13:22:06;;;;;;;13.07;5.07;;;5.10;99.90;;;;;;5052703;28;20283;-53
2023/01/17 13:25:09;;;;;;;12.40;4.38;;;5.20;99.90;;;;;;5052987;28;20040;-55
2023/01/17 13:28:09;;;;;;;12.70;5.50;;;5.20;99.90;;;;;;5056748;28;20081;-55
2023/01/17 13:31:06;;;;;;;11.80;5.47;;;5.30;99.90;;;;;;5058161;28;20037;-55
2023/01/17 13:34:00;;;;;;;12.23;5.35;;;5.40;99.90;;;;;;5058707;28;20041;-55
2023/01/17 13:36:40;;;;;;;12.80;4.65;;;5.20;99.90;;;;;;5044943;28;20024;-54
2023/01/17 13:39:08;;;;;;;13.88;4.30;;;5.20;99.90;;;;;;5050132;28;20511;-55
2023/01/17 13:41:43;;;;;;;12.38;4.30;;;5.40;99.90;;;;;;5052893;28;20676;-55
2023/01/17 13:44:23;;;;;;;10.75;4.88;;;5.30;99.90;;;;;;5054444;28;20115;-52
2023/01/17 13:47:00;;;;;;;12.40;5.05;;;5.30;99.90;;;;;;5052597;28;20044;-55
2023/01/17 13:49:30;;;;;;;14.07;6.20;;;5.30;99.90;;;;;;5049824;28;20692;-55
2023/01/17 13:52:09;;;;;;;14.43;7.18;;;5.10;99.90;;;;;;5062685;28;20079;-55
2023/01/17 13:54:43;;;;;;;14.38;5.40;;;4.90;99.90;;;;;;5058384;28;20029;-52
2023/01/17 13:57:40;;;;;;;12.27;4.53;;;4.90;99.90;;;;;;5057849;28;20033;-55
2023/01/17 14:00:15;;;;;;;11.48;3.38;;;5.10;99.90;;;;;;5049059;28;20060;-54
2023/01/17 14:02:41;;;;;;;8.68;4.18;;;5.00;99.90;;;;;;5053709;28;20124;-53
2023/01/17 14:05:12;;;;;;;10.95;4.22;;;5.10;99.90;;;;;;5053386;28;20037;-55
2023/01/17 14:07:54;;;;;;;14.93;4.38;;;5.30;99.90;;;;;;5049201;28;20033;-55
2023/01/17 14:10:39;;;;;;;9.15;3.45;;;5.20;99.90;;;;;;5056497;28;20466;-53
2023/01/17 14:13:30;;;;;;;12.57;4.55;;;5.30;99.90;;;;;;5061216;28;20028;-53
2023/01/17 14:15:56;;;;;;;13.50;4.90;;;5.40;99.90;;;;;;5054736;28;20029;-55
2023/01/17 14:18:33;;;;;;;9.27;4.50;;;5.30;99.90;;;;;;5057294;28;20521;-54
2023/01/17 14:21:21;;;;;;;10.68;4.97;;;5.30;99.90;;;;;;5052758;28;20527;-54
2023/01/17 14:24:11;;;;;;;9.68;4.53;;;5.20;99.90;;;;;;5061816;28;20044;-56
2023/01/17 14:26:44;;;;;;;13.38;4.45;;;5.10;99.90;;;;;;5052328;28;20076;-55
2023/01/17 14:29:44;;;;;;;13.20;3.47;;;5.10;99.90;;;;;;5055098;28;20037;-54
2023/01/17 14:32:12;;;;;;;14.75;4.60;;;4.90;99.90;;;;;;5059487;28;20029;-55
2023/01/17 14:34:38;;;;;;;11.13;4.68;;;4.90;99.90;;;;;;5053879;28;20376;-54